sensor_id;sensor_type;location;lat;lon;timestamp;P1;durP1;ratioP1;P2;durP2;ratioP2
37339;SDS011;23223;51.006;7.610;2022-08-05T00:01:01;9.38;;;3.53;;
37339;SDS011;23223;51.006;7.610;2022-08-05T00:03:34;9.73;;;3.88;;
37339;SDS011;23223;51.006;7.610;2022-08-05T00:06:00;8.32;;;4.63;;
37339;SDS011;23223;51.006;7.610;2022-08-05T00:08:25;6.38;;;3.92;;
37339;SDS011;23223;51.006;7.610;2022-08-05T00:10:51;7.43;;;3.50;;
37339;SDS011;23223;51.006;7.610;2022-08-05T00:13:16;11.93;;;4.65;;
37339;SDS011;23223;51.006;7.610;2022-08-05T00:15:42;9.23;;;4.25;;
37339;SDS011;23223;51.006;7.610;2022-08-05T00:18:07;7.85;;;4.40;;
37339;SDS011;23223;51.006;7.610;2022-08-05T00:20:33;8.90;;;5.82;;
37339;SDS011;23223;51.006;7.610;2022-08-05T00:22:58;8.63;;;3.20;;
37339;SDS011;23223;51.006;7.610;2022-08-05T00:25:24;7.25;;;4.82;;
37339;SDS011;23223;51.006;7.610;2022-08-05T00:27:49;8.77;;;4.68;;
37339;SDS011;23223;51.006;7.610;2022-08-05T00:30:15;5.57;;;3.13;;
37339;SDS011;23223;51.006;7.610;2022-08-05T00:32:40;5.70;;;3.38;;
37339;SDS011;23223;51.006;7.610;2022-08-05T00:35:06;12.02;;;5.18;;
37339;SDS011;23223;51.006;7.610;2022-08-05T00:37:32;8.90;;;4.80;;
37339;SDS011;23223;51.006;7.610;2022-08-05T00:39:58;8.43;;;5.10;;
37339;SDS011;23223;51.006;7.610;2022-08-05T00:42:30;7.03;;;3.60;;
37339;SDS011;23223;51.006;7.610;2022-08-05T00:44:57;10.32;;;3.78;;
37339;SDS011;23223;51.006;7.610;2022-08-05T00:47:23;6.93;;;3.28;;
37339;SDS011;23223;51.006;7.610;2022-08-05T00:49:49;8.50;;;4.38;;
37339;SDS011;23223;51.006;7.610;2022-08-05T00:52:14;6.20;;;2.45;;
37339;SDS011;23223;51.006;7.610;2022-08-05T00:54:40;5.32;;;3.88;;
37339;SDS011;23223;51.006;7.610;2022-08-05T00:57:05;11.27;;;4.50;;
37339;SDS011;23223;51.006;7.610;2022-08-05T00:59:31;10.55;;;4.50;;
37339;SDS011;23223;51.006;7.610;2022-08-05T01:01:56;8.88;;;4.78;;
37339;SDS011;23223;51.006;7.610;2022-08-05T01:04:22;12.73;;;5.20;;
37339;SDS011;23223;51.006;7.610;2022-08-05T01:06:47;10.63;;;4.78;;
37339;SDS011;23223;51.006;7.610;2022-08-05T01:09:13;9.73;;;5.40;;
37339;SDS011;23223;51.006;7.610;2022-08-05T01:11:38;12.45;;;4.35;;
37339;SDS011;23223;51.006;7.610;2022-08-05T01:14:11;14.75;;;4.88;;
37339;SDS011;23223;51.006;7.610;2022-08-05T01:16:49;13.30;;;5.00;;
37339;SDS011;23223;51.006;7.610;2022-08-05T01:19:22;10.60;;;5.05;;
37339;SDS011;23223;51.006;7.610;2022-08-05T01:30:30;8.32;;;4.20;;
37339;SDS011;23223;51.006;7.610;2022-08-05T01:33:02;7.55;;;4.43;;
37339;SDS011;23223;51.006;7.610;2022-08-05T01:35:32;2.83;;;2.22;;
37339;SDS011;23223;51.006;7.610;2022-08-05T01:38:03;7.03;;;4.10;;
37339;SDS011;23223;51.006;7.610;2022-08-05T01:40:30;11.60;;;5.25;;
37339;SDS011;23223;51.006;7.610;2022-08-05T01:42:58;13.32;;;5.22;;
37339;SDS011;23223;51.006;7.610;2022-08-05T01:45:27;11.52;;;5.40;;
37339;SDS011;23223;51.006;7.610;2022-08-05T01:47:54;11.25;;;4.53;;
37339;SDS011;23223;51.006;7.610;2022-08-05T01:50:27;11.98;;;4.72;;
37339;SDS011;23223;51.006;7.610;2022-08-05T01:52:55;10.90;;;4.18;;
37339;SDS011;23223;51.006;7.610;2022-08-05T01:55:28;9.23;;;3.88;;
37339;SDS011;23223;51.006;7.610;2022-08-05T01:57:56;8.13;;;4.68;;
37339;SDS011;23223;51.006;7.610;2022-08-05T02:00:24;10.52;;;3.80;;
37339;SDS011;23223;51.006;7.610;2022-08-05T02:02:54;6.80;;;5.82;;
37339;SDS011;23223;51.006;7.610;2022-08-05T02:05:24;10.40;;;5.53;;
37339;SDS011;23223;51.006;7.610;2022-08-05T02:07:54;8.15;;;4.25;;
37339;SDS011;23223;51.006;7.610;2022-08-05T02:10:21;8.40;;;3.90;;
37339;SDS011;23223;51.006;7.610;2022-08-05T02:12:59;8.20;;;4.07;;
37339;SDS011;23223;51.006;7.610;2022-08-05T02:15:32;10.85;;;4.45;;
37339;SDS011;23223;51.006;7.610;2022-08-05T02:18:03;12.73;;;4.63;;
37339;SDS011;23223;51.006;7.610;2022-08-05T02:20:31;10.77;;;4.18;;
37339;SDS011;23223;51.006;7.610;2022-08-05T02:23:07;11.57;;;4.75;;
37339;SDS011;23223;51.006;7.610;2022-08-05T02:25:35;7.43;;;4.78;;
37339;SDS011;23223;51.006;7.610;2022-08-05T02:28:03;8.40;;;4.55;;
37339;SDS011;23223;51.006;7.610;2022-08-05T02:30:37;7.30;;;4.20;;
37339;SDS011;23223;51.006;7.610;2022-08-05T02:33:08;7.63;;;3.92;;
37339;SDS011;23223;51.006;7.610;2022-08-05T02:35:38;14.27;;;5.60;;
37339;SDS011;23223;51.006;7.610;2022-08-05T02:38:06;16.55;;;5.30;;
37339;SDS011;23223;51.006;7.610;2022-08-05T02:40:32;10.25;;;4.60;;
37339;SDS011;23223;51.006;7.610;2022-08-05T02:42:58;9.55;;;5.25;;
37339;SDS011;23223;51.006;7.610;2022-08-05T02:45:25;11.00;;;4.97;;
37339;SDS011;23223;51.006;7.610;2022-08-05T02:47:52;4.22;;;3.25;;
37339;SDS011;23223;51.006;7.610;2022-08-05T02:50:20;6.88;;;3.60;;
37339;SDS011;23223;51.006;7.610;2022-08-05T02:52:47;5.82;;;2.80;;
37339;SDS011;23223;51.006;7.610;2022-08-05T02:55:13;2.80;;;2.33;;
37339;SDS011;23223;51.006;7.610;2022-08-05T02:57:39;9.02;;;3.22;;
37339;SDS011;23223;51.006;7.610;2022-08-05T03:00:06;5.80;;;3.22;;
37339;SDS011;23223;51.006;7.610;2022-08-05T03:02:33;11.52;;;3.20;;
37339;SDS011;23223;51.006;7.610;2022-08-05T03:05:03;3.50;;;2.47;;
37339;SDS011;23223;51.006;7.610;2022-08-05T03:07:31;4.55;;;2.88;;
37339;SDS011;23223;51.006;7.610;2022-08-05T03:09:58;5.57;;;4.03;;
37339;SDS011;23223;51.006;7.610;2022-08-05T03:12:34;12.88;;;3.53;;
37339;SDS011;23223;51.006;7.610;2022-08-05T03:15:06;7.82;;;4.40;;
37339;SDS011;23223;51.006;7.610;2022-08-05T03:17:33;8.52;;;3.42;;
37339;SDS011;23223;51.006;7.610;2022-08-05T03:19:59;7.68;;;3.72;;
37339;SDS011;23223;51.006;7.610;2022-08-05T03:22:24;12.95;;;5.10;;
37339;SDS011;23223;51.006;7.610;2022-08-05T03:24:51;5.20;;;3.22;;
37339;SDS011;23223;51.006;7.610;2022-08-05T03:27:17;13.80;;;4.05;;
37339;SDS011;23223;51.006;7.610;2022-08-05T03:29:44;8.68;;;4.10;;
37339;SDS011;23223;51.006;7.610;2022-08-05T03:32:10;8.48;;;4.07;;
37339;SDS011;23223;51.006;7.610;2022-08-05T03:34:36;8.65;;;4.65;;
37339;SDS011;23223;51.006;7.610;2022-08-05T03:37:02;5.38;;;2.67;;
37339;SDS011;23223;51.006;7.610;2022-08-05T03:39:29;7.15;;;3.90;;
37339;SDS011;23223;51.006;7.610;2022-08-05T03:41:55;7.75;;;3.88;;
37339;SDS011;23223;51.006;7.610;2022-08-05T03:44:21;21.33;;;5.45;;
37339;SDS011;23223;51.006;7.610;2022-08-05T03:46:47;13.38;;;4.70;;
37339;SDS011;23223;51.006;7.610;2022-08-05T03:49:13;14.23;;;4.78;;
37339;SDS011;23223;51.006;7.610;2022-08-05T03:51:41;10.40;;;3.90;;
37339;SDS011;23223;51.006;7.610;2022-08-05T03:54:13;11.25;;;4.18;;
37339;SDS011;23223;51.006;7.610;2022-08-05T03:56:46;8.52;;;3.20;;
37339;SDS011;23223;51.006;7.610;2022-08-05T03:59:14;11.18;;;4.35;;
37339;SDS011;23223;51.006;7.610;2022-08-05T04:01:45;11.50;;;4.93;;
37339;SDS011;23223;51.006;7.610;2022-08-05T04:04:14;13.88;;;4.32;;
37339;SDS011;23223;51.006;7.610;2022-08-05T04:06:40;12.90;;;4.75;;
37339;SDS011;23223;51.006;7.610;2022-08-05T04:09:07;11.02;;;4.43;;
37339;SDS011;23223;51.006;7.610;2022-08-05T04:11:34;8.52;;;4.65;;
37339;SDS011;23223;51.006;7.610;2022-08-05T04:14:01;13.82;;;4.72;;
37339;SDS011;23223;51.006;7.610;2022-08-05T04:16:27;6.13;;;3.20;;
37339;SDS011;23223;51.006;7.610;2022-08-05T04:18:53;7.47;;;4.53;;
37339;SDS011;23223;51.006;7.610;2022-08-05T04:21:18;10.55;;;4.68;;
37339;SDS011;23223;51.006;7.610;2022-08-05T04:23:44;14.30;;;4.95;;
37339;SDS011;23223;51.006;7.610;2022-08-05T04:26:10;12.35;;;4.63;;
37339;SDS011;23223;51.006;7.610;2022-08-05T04:28:37;8.90;;;4.45;;
37339;SDS011;23223;51.006;7.610;2022-08-05T04:31:02;6.60;;;4.65;;
37339;SDS011;23223;51.006;7.610;2022-08-05T04:33:28;8.82;;;4.63;;
37339;SDS011;23223;51.006;7.610;2022-08-05T04:35:54;20.98;;;5.82;;
37339;SDS011;23223;51.006;7.610;2022-08-05T04:38:20;13.35;;;6.00;;
37339;SDS011;23223;51.006;7.610;2022-08-05T04:40:46;10.63;;;5.65;;
37339;SDS011;23223;51.006;7.610;2022-08-05T04:43:11;9.20;;;4.95;;
37339;SDS011;23223;51.006;7.610;2022-08-05T04:45:37;9.82;;;4.60;;
37339;SDS011;23223;51.006;7.610;2022-08-05T04:48:03;6.97;;;3.63;;
37339;SDS011;23223;51.006;7.610;2022-08-05T04:50:40;6.97;;;3.20;;
37339;SDS011;23223;51.006;7.610;2022-08-05T04:53:10;3.33;;;2.08;;
37339;SDS011;23223;51.006;7.610;2022-08-05T04:55:37;6.85;;;2.80;;
37339;SDS011;23223;51.006;7.610;2022-08-05T04:58:04;7.15;;;3.63;;
37339;SDS011;23223;51.006;7.610;2022-08-05T05:00:31;4.82;;;3.25;;
37339;SDS011;23223;51.006;7.610;2022-08-05T05:02:57;9.10;;;4.03;;
37339;SDS011;23223;51.006;7.610;2022-08-05T05:05:23;11.25;;;4.55;;
37339;SDS011;23223;51.006;7.610;2022-08-05T05:07:48;9.65;;;3.30;;
37339;SDS011;23223;51.006;7.610;2022-08-05T05:10:14;5.95;;;3.72;;
37339;SDS011;23223;51.006;7.610;2022-08-05T05:12:39;8.95;;;3.53;;
37339;SDS011;23223;51.006;7.610;2022-08-05T05:15:05;8.70;;;5.13;;
37339;SDS011;23223;51.006;7.610;2022-08-05T05:17:38;8.02;;;5.28;;
37339;SDS011;23223;51.006;7.610;2022-08-05T05:20:05;10.93;;;4.93;;
37339;SDS011;23223;51.006;7.610;2022-08-05T05:22:31;6.95;;;4.32;;
37339;SDS011;23223;51.006;7.610;2022-08-05T05:24:57;10.68;;;4.90;;
37339;SDS011;23223;51.006;7.610;2022-08-05T05:27:23;11.65;;;5.28;;
37339;SDS011;23223;51.006;7.610;2022-08-05T05:29:49;9.88;;;5.07;;
37339;SDS011;23223;51.006;7.610;2022-08-05T05:32:15;8.70;;;4.93;;
37339;SDS011;23223;51.006;7.610;2022-08-05T05:34:40;9.40;;;5.10;;
37339;SDS011;23223;51.006;7.610;2022-08-05T05:37:06;10.57;;;5.43;;
37339;SDS011;23223;51.006;7.610;2022-08-05T05:39:31;17.05;;;5.85;;
37339;SDS011;23223;51.006;7.610;2022-08-05T05:41:57;10.43;;;5.63;;
37339;SDS011;23223;51.006;7.610;2022-08-05T05:44:22;9.73;;;6.10;;
37339;SDS011;23223;51.006;7.610;2022-08-05T05:46:48;8.55;;;5.65;;
37339;SDS011;23223;51.006;7.610;2022-08-05T05:49:13;6.78;;;4.00;;
37339;SDS011;23223;51.006;7.610;2022-08-05T05:51:39;8.48;;;4.28;;
37339;SDS011;23223;51.006;7.610;2022-08-05T05:54:04;5.90;;;4.22;;
37339;SDS011;23223;51.006;7.610;2022-08-05T05:56:30;9.80;;;4.30;;
37339;SDS011;23223;51.006;7.610;2022-08-05T05:58:56;6.85;;;4.40;;
37339;SDS011;23223;51.006;7.610;2022-08-05T06:01:21;7.68;;;4.80;;
37339;SDS011;23223;51.006;7.610;2022-08-05T06:03:47;9.80;;;4.13;;
37339;SDS011;23223;51.006;7.610;2022-08-05T06:06:13;5.28;;;3.08;;
37339;SDS011;23223;51.006;7.610;2022-08-05T06:08:38;4.32;;;2.92;;
37339;SDS011;23223;51.006;7.610;2022-08-05T06:11:04;6.53;;;2.80;;
37339;SDS011;23223;51.006;7.610;2022-08-05T06:13:30;6.35;;;3.28;;
37339;SDS011;23223;51.006;7.610;2022-08-05T06:15:56;5.07;;;3.08;;
37339;SDS011;23223;51.006;7.610;2022-08-05T06:18:21;6.38;;;3.20;;
37339;SDS011;23223;51.006;7.610;2022-08-05T06:20:47;8.65;;;4.15;;
37339;SDS011;23223;51.006;7.610;2022-08-05T06:23:12;7.53;;;3.60;;
37339;SDS011;23223;51.006;7.610;2022-08-05T06:25:38;8.32;;;4.65;;
37339;SDS011;23223;51.006;7.610;2022-08-05T06:28:04;9.23;;;6.05;;
37339;SDS011;23223;51.006;7.610;2022-08-05T06:30:29;10.13;;;5.32;;
37339;SDS011;23223;51.006;7.610;2022-08-05T06:32:55;7.15;;;3.47;;
37339;SDS011;23223;51.006;7.610;2022-08-05T06:35:20;10.38;;;6.00;;
37339;SDS011;23223;51.006;7.610;2022-08-05T06:37:46;6.93;;;3.53;;
37339;SDS011;23223;51.006;7.610;2022-08-05T06:40:11;6.15;;;3.47;;
37339;SDS011;23223;51.006;7.610;2022-08-05T06:42:37;3.58;;;3.20;;
37339;SDS011;23223;51.006;7.610;2022-08-05T06:45:03;5.82;;;4.68;;
37339;SDS011;23223;51.006;7.610;2022-08-05T06:47:29;8.07;;;4.55;;
37339;SDS011;23223;51.006;7.610;2022-08-05T06:49:55;6.65;;;3.83;;
37339;SDS011;23223;51.006;7.610;2022-08-05T06:52:21;8.32;;;5.43;;
37339;SDS011;23223;51.006;7.610;2022-08-05T06:54:46;4.30;;;2.97;;
37339;SDS011;23223;51.006;7.610;2022-08-05T06:57:12;6.60;;;3.25;;
37339;SDS011;23223;51.006;7.610;2022-08-05T06:59:39;12.15;;;4.90;;
37339;SDS011;23223;51.006;7.610;2022-08-05T07:02:05;10.57;;;5.10;;
37339;SDS011;23223;51.006;7.610;2022-08-05T07:04:31;8.60;;;5.43;;
37339;SDS011;23223;51.006;7.610;2022-08-05T07:06:57;8.80;;;4.20;;
37339;SDS011;23223;51.006;7.610;2022-08-05T07:09:22;6.85;;;4.30;;
37339;SDS011;23223;51.006;7.610;2022-08-05T07:11:48;6.85;;;3.47;;
37339;SDS011;23223;51.006;7.610;2022-08-05T07:14:13;6.60;;;3.92;;
37339;SDS011;23223;51.006;7.610;2022-08-05T07:16:58;9.48;;;4.68;;
37339;SDS011;23223;51.006;7.610;2022-08-05T07:19:25;8.70;;;7.03;;
37339;SDS011;23223;51.006;7.610;2022-08-05T07:21:51;6.15;;;3.67;;
37339;SDS011;23223;51.006;7.610;2022-08-05T07:24:17;8.98;;;6.15;;
37339;SDS011;23223;51.006;7.610;2022-08-05T07:26:43;11.15;;;7.72;;
37339;SDS011;23223;51.006;7.610;2022-08-05T07:29:10;9.05;;;6.50;;
37339;SDS011;23223;51.006;7.610;2022-08-05T07:31:35;12.10;;;6.95;;
37339;SDS011;23223;51.006;7.610;2022-08-05T07:34:01;7.93;;;5.28;;
37339;SDS011;23223;51.006;7.610;2022-08-05T07:36:28;7.55;;;4.15;;
37339;SDS011;23223;51.006;7.610;2022-08-05T07:38:54;9.70;;;7.07;;
37339;SDS011;23223;51.006;7.610;2022-08-05T07:41:21;10.00;;;7.65;;
37339;SDS011;23223;51.006;7.610;2022-08-05T07:43:48;8.70;;;5.25;;
37339;SDS011;23223;51.006;7.610;2022-08-05T07:46:14;14.93;;;7.35;;
37339;SDS011;23223;51.006;7.610;2022-08-05T07:48:39;9.82;;;8.23;;
37339;SDS011;23223;51.006;7.610;2022-08-05T07:51:05;11.50;;;7.05;;
37339;SDS011;23223;51.006;7.610;2022-08-05T07:53:30;6.68;;;4.63;;
37339;SDS011;23223;51.006;7.610;2022-08-05T07:55:56;16.08;;;9.05;;
37339;SDS011;23223;51.006;7.610;2022-08-05T07:58:22;10.35;;;6.63;;
37339;SDS011;23223;51.006;7.610;2022-08-05T08:00:47;13.85;;;10.05;;
37339;SDS011;23223;51.006;7.610;2022-08-05T08:03:14;11.65;;;8.30;;
37339;SDS011;23223;51.006;7.610;2022-08-05T08:05:40;17.10;;;10.13;;
37339;SDS011;23223;51.006;7.610;2022-08-05T08:08:07;24.77;;;15.77;;
37339;SDS011;23223;51.006;7.610;2022-08-05T08:10:33;16.38;;;13.52;;
37339;SDS011;23223;51.006;7.610;2022-08-05T08:12:59;14.77;;;8.65;;
37339;SDS011;23223;51.006;7.610;2022-08-05T08:15:24;19.38;;;12.35;;
37339;SDS011;23223;51.006;7.610;2022-08-05T08:17:50;15.88;;;12.73;;
37339;SDS011;23223;51.006;7.610;2022-08-05T08:20:16;17.17;;;9.07;;
37339;SDS011;23223;51.006;7.610;2022-08-05T08:22:41;27.10;;;16.20;;
37339;SDS011;23223;51.006;7.610;2022-08-05T08:25:07;21.38;;;15.85;;
37339;SDS011;23223;51.006;7.610;2022-08-05T08:27:33;18.95;;;12.80;;
37339;SDS011;23223;51.006;7.610;2022-08-05T08:29:58;19.90;;;12.60;;
37339;SDS011;23223;51.006;7.610;2022-08-05T08:32:24;28.63;;;21.27;;
37339;SDS011;23223;51.006;7.610;2022-08-05T08:34:49;29.23;;;23.80;;
37339;SDS011;23223;51.006;7.610;2022-08-05T08:37:16;15.70;;;12.80;;
37339;SDS011;23223;51.006;7.610;2022-08-05T08:39:42;21.10;;;16.42;;
37339;SDS011;23223;51.006;7.610;2022-08-05T08:42:08;26.35;;;20.23;;
37339;SDS011;23223;51.006;7.610;2022-08-05T08:44:34;22.45;;;16.70;;
37339;SDS011;23223;51.006;7.610;2022-08-05T08:47:02;23.52;;;19.63;;
37339;SDS011;23223;51.006;7.610;2022-08-05T08:49:28;32.63;;;26.13;;
37339;SDS011;23223;51.006;7.610;2022-08-05T08:51:58;28.17;;;21.75;;
37339;SDS011;23223;51.006;7.610;2022-08-05T08:54:27;28.08;;;19.13;;
37339;SDS011;23223;51.006;7.610;2022-08-05T08:56:54;32.17;;;25.90;;
37339;SDS011;23223;51.006;7.610;2022-08-05T08:59:20;28.88;;;22.25;;
37339;SDS011;23223;51.006;7.610;2022-08-05T09:01:47;19.85;;;13.90;;
37339;SDS011;23223;51.006;7.610;2022-08-05T09:04:13;35.28;;;29.73;;
37339;SDS011;23223;51.006;7.610;2022-08-05T09:06:40;27.83;;;21.33;;
37339;SDS011;23223;51.006;7.610;2022-08-05T09:09:06;32.85;;;24.05;;
37339;SDS011;23223;51.006;7.610;2022-08-05T09:11:32;32.78;;;25.48;;
37339;SDS011;23223;51.006;7.610;2022-08-05T09:13:58;28.00;;;23.50;;
37339;SDS011;23223;51.006;7.610;2022-08-05T09:16:25;29.58;;;23.67;;
37339;SDS011;23223;51.006;7.610;2022-08-05T09:18:51;32.17;;;26.17;;
37339;SDS011;23223;51.006;7.610;2022-08-05T09:21:17;21.75;;;18.45;;
37339;SDS011;23223;51.006;7.610;2022-08-05T09:23:43;28.45;;;19.90;;
37339;SDS011;23223;51.006;7.610;2022-08-05T09:26:11;24.98;;;20.05;;
37339;SDS011;23223;51.006;7.610;2022-08-05T09:28:41;24.85;;;20.23;;
37339;SDS011;23223;51.006;7.610;2022-08-05T09:31:08;25.98;;;20.95;;
37339;SDS011;23223;51.006;7.610;2022-08-05T09:33:54;33.42;;;26.88;;
37339;SDS011;23223;51.006;7.610;2022-08-05T09:36:20;31.38;;;23.80;;
37339;SDS011;23223;51.006;7.610;2022-08-05T09:38:56;33.17;;;22.77;;
37339;SDS011;23223;51.006;7.610;2022-08-05T09:41:23;30.63;;;22.67;;
37339;SDS011;23223;51.006;7.610;2022-08-05T09:43:49;24.58;;;19.85;;
37339;SDS011;23223;51.006;7.610;2022-08-05T09:46:28;24.58;;;18.85;;
37339;SDS011;23223;51.006;7.610;2022-08-05T09:48:58;24.88;;;20.20;;
37339;SDS011;23223;51.006;7.610;2022-08-05T09:51:37;25.25;;;17.13;;
37339;SDS011;23223;51.006;7.610;2022-08-05T09:54:05;30.15;;;24.58;;
37339;SDS011;23223;51.006;7.610;2022-08-05T09:56:32;25.10;;;19.73;;
37339;SDS011;23223;51.006;7.610;2022-08-05T10:01:31;26.45;;;14.13;;
37339;SDS011;23223;51.006;7.610;2022-08-05T10:06:30;21.98;;;17.88;;
37339;SDS011;23223;51.006;7.610;2022-08-05T10:09:15;16.50;;;12.00;;
37339;SDS011;23223;51.006;7.610;2022-08-05T10:11:43;16.85;;;13.52;;
37339;SDS011;23223;51.006;7.610;2022-08-05T10:14:26;14.23;;;11.95;;
37339;SDS011;23223;51.006;7.610;2022-08-05T10:16:53;15.15;;;12.95;;
37339;SDS011;23223;51.006;7.610;2022-08-05T10:19:23;12.90;;;9.88;;
37339;SDS011;23223;51.006;7.610;2022-08-05T10:21:50;10.48;;;9.02;;
37339;SDS011;23223;51.006;7.610;2022-08-05T10:24:16;6.10;;;5.50;;
37339;SDS011;23223;51.006;7.610;2022-08-05T10:26:43;10.35;;;6.90;;
37339;SDS011;23223;51.006;7.610;2022-08-05T10:29:10;49.63;;;25.58;;
37339;SDS011;23223;51.006;7.610;2022-08-05T10:31:36;38.15;;;21.33;;
37339;SDS011;23223;51.006;7.610;2022-08-05T10:34:05;4.22;;;3.22;;
37339;SDS011;23223;51.006;7.610;2022-08-05T10:36:33;6.55;;;1.67;;
37339;SDS011;23223;51.006;7.610;2022-08-05T10:39:03;2.00;;;1.30;;
37339;SDS011;23223;51.006;7.610;2022-08-05T10:41:42;30.95;;;15.48;;
37339;SDS011;23223;51.006;7.610;2022-08-05T10:44:17;3.55;;;1.52;;
37339;SDS011;23223;51.006;7.610;2022-08-05T10:46:51;2.15;;;1.95;;
37339;SDS011;23223;51.006;7.610;2022-08-05T10:49:18;3.88;;;2.13;;
37339;SDS011;23223;51.006;7.610;2022-08-05T10:51:49;1.92;;;1.55;;
37339;SDS011;23223;51.006;7.610;2022-08-05T10:54:21;2.50;;;1.42;;
37339;SDS011;23223;51.006;7.610;2022-08-05T10:56:49;11.32;;;5.82;;
37339;SDS011;23223;51.006;7.610;2022-08-05T10:59:25;1.60;;;1.48;;
37339;SDS011;23223;51.006;7.610;2022-08-05T11:02:05;4.45;;;1.92;;
37339;SDS011;23223;51.006;7.610;2022-08-05T11:04:53;1.60;;;1.50;;
37339;SDS011;23223;51.006;7.610;2022-08-05T11:07:19;1.65;;;1.55;;
37339;SDS011;23223;51.006;7.610;2022-08-05T11:09:49;1.98;;;1.85;;
37339;SDS011;23223;51.006;7.610;2022-08-05T11:12:40;1.05;;;1.05;;
37339;SDS011;23223;51.006;7.610;2022-08-05T11:17:40;2.80;;;1.80;;
37339;SDS011;23223;51.006;7.610;2022-08-05T11:20:30;2.70;;;1.63;;
37339;SDS011;23223;51.006;7.610;2022-08-05T11:24:10;1.65;;;1.50;;
37339;SDS011;23223;51.006;7.610;2022-08-05T11:28:44;2.65;;;1.48;;
37339;SDS011;23223;51.006;7.610;2022-08-05T11:33:58;3.42;;;1.67;;
37339;SDS011;23223;51.006;7.610;2022-08-05T11:36:43;2.15;;;1.33;;
37339;SDS011;23223;51.006;7.610;2022-08-05T11:39:11;9.75;;;2.33;;
37339;SDS011;23223;51.006;7.610;2022-08-05T11:41:38;2.17;;;1.42;;
37339;SDS011;23223;51.006;7.610;2022-08-05T11:44:06;4.50;;;1.73;;
37339;SDS011;23223;51.006;7.610;2022-08-05T11:46:45;3.05;;;1.25;;
37339;SDS011;23223;51.006;7.610;2022-08-05T11:49:14;3.58;;;1.15;;
37339;SDS011;23223;51.006;7.610;2022-08-05T11:51:44;2.97;;;1.40;;
37339;SDS011;23223;51.006;7.610;2022-08-05T11:54:11;1.70;;;1.38;;
37339;SDS011;23223;51.006;7.610;2022-08-05T11:56:46;2.10;;;1.33;;
37339;SDS011;23223;51.006;7.610;2022-08-05T11:59:17;3.95;;;1.23;;
37339;SDS011;23223;51.006;7.610;2022-08-05T12:01:51;3.85;;;1.42;;
37339;SDS011;23223;51.006;7.610;2022-08-05T12:04:17;5.13;;;1.60;;
37339;SDS011;23223;51.006;7.610;2022-08-05T12:06:43;2.65;;;1.45;;
37339;SDS011;23223;51.006;7.610;2022-08-05T12:09:08;4.10;;;1.30;;
37339;SDS011;23223;51.006;7.610;2022-08-05T12:11:34;3.78;;;1.10;;
37339;SDS011;23223;51.006;7.610;2022-08-05T12:16:27;2.95;;;1.25;;
37339;SDS011;23223;51.006;7.610;2022-08-05T12:18:58;3.13;;;1.38;;
37339;SDS011;23223;51.006;7.610;2022-08-05T12:21:31;2.53;;;1.10;;
37339;SDS011;23223;51.006;7.610;2022-08-05T12:24:06;2.05;;;1.50;;
37339;SDS011;23223;51.006;7.610;2022-08-05T12:29:02;3.72;;;1.40;;
37339;SDS011;23223;51.006;7.610;2022-08-05T12:31:30;2.92;;;1.30;;
37339;SDS011;23223;51.006;7.610;2022-08-05T12:33:57;4.72;;;1.35;;
37339;SDS011;23223;51.006;7.610;2022-08-05T12:36:22;2.63;;;1.10;;
37339;SDS011;23223;51.006;7.610;2022-08-05T12:38:48;2.15;;;1.10;;
37339;SDS011;23223;51.006;7.610;2022-08-05T12:41:14;2.78;;;0.93;;
37339;SDS011;23223;51.006;7.610;2022-08-05T12:43:54;3.38;;;1.25;;
37339;SDS011;23223;51.006;7.610;2022-08-05T12:46:25;4.88;;;1.50;;
37339;SDS011;23223;51.006;7.610;2022-08-05T12:51:24;2.85;;;1.02;;
37339;SDS011;23223;51.006;7.610;2022-08-05T12:53:51;2.38;;;1.02;;
37339;SDS011;23223;51.006;7.610;2022-08-05T12:56:23;1.70;;;0.85;;
37339;SDS011;23223;51.006;7.610;2022-08-05T13:01:34;3.28;;;1.48;;
37339;SDS011;23223;51.006;7.610;2022-08-05T13:04:01;2.20;;;0.80;;
37339;SDS011;23223;51.006;7.610;2022-08-05T13:06:28;3.95;;;1.50;;
37339;SDS011;23223;51.006;7.610;2022-08-05T13:08:53;5.57;;;1.60;;
37339;SDS011;23223;51.006;7.610;2022-08-05T13:11:22;4.07;;;0.90;;
37339;SDS011;23223;51.006;7.610;2022-08-05T13:13:56;4.90;;;1.25;;
37339;SDS011;23223;51.006;7.610;2022-08-05T13:16:22;2.25;;;1.20;;
37339;SDS011;23223;51.006;7.610;2022-08-05T13:18:52;1.90;;;0.90;;
37339;SDS011;23223;51.006;7.610;2022-08-05T13:21:18;3.78;;;1.20;;
37339;SDS011;23223;51.006;7.610;2022-08-05T13:23:44;2.83;;;1.13;;
37339;SDS011;23223;51.006;7.610;2022-08-05T13:26:09;3.90;;;1.20;;
37339;SDS011;23223;51.006;7.610;2022-08-05T13:28:35;4.18;;;1.20;;
37339;SDS011;23223;51.006;7.610;2022-08-05T13:31:00;3.28;;;1.23;;
37339;SDS011;23223;51.006;7.610;2022-08-05T13:33:26;3.30;;;1.05;;
37339;SDS011;23223;51.006;7.610;2022-08-05T13:35:52;1.55;;;1.00;;
37339;SDS011;23223;51.006;7.610;2022-08-05T13:38:18;2.45;;;1.20;;
37339;SDS011;23223;51.006;7.610;2022-08-05T13:40:44;6.40;;;2.03;;
37339;SDS011;23223;51.006;7.610;2022-08-05T13:43:10;2.47;;;1.23;;
37339;SDS011;23223;51.006;7.610;2022-08-05T13:45:36;3.25;;;1.67;;
37339;SDS011;23223;51.006;7.610;2022-08-05T13:48:01;4.80;;;1.40;;
37339;SDS011;23223;51.006;7.610;2022-08-05T13:50:27;2.17;;;1.40;;
37339;SDS011;23223;51.006;7.610;2022-08-05T13:52:53;5.32;;;1.33;;
37339;SDS011;23223;51.006;7.610;2022-08-05T13:55:18;4.10;;;1.70;;
37339;SDS011;23223;51.006;7.610;2022-08-05T13:57:44;5.88;;;1.13;;
37339;SDS011;23223;51.006;7.610;2022-08-05T14:00:10;5.03;;;1.30;;
37339;SDS011;23223;51.006;7.610;2022-08-05T14:02:36;1.58;;;1.05;;
37339;SDS011;23223;51.006;7.610;2022-08-05T14:05:01;3.17;;;1.33;;
37339;SDS011;23223;51.006;7.610;2022-08-05T14:07:41;3.35;;;1.58;;
37339;SDS011;23223;51.006;7.610;2022-08-05T14:10:12;4.65;;;1.92;;
37339;SDS011;23223;51.006;7.610;2022-08-05T14:12:47;4.85;;;2.33;;
37339;SDS011;23223;51.006;7.610;2022-08-05T14:15:13;4.63;;;1.88;;
37339;SDS011;23223;51.006;7.610;2022-08-05T14:17:39;6.97;;;1.25;;
37339;SDS011;23223;51.006;7.610;2022-08-05T14:20:06;3.05;;;1.50;;
37339;SDS011;23223;51.006;7.610;2022-08-05T14:22:32;6.30;;;1.40;;
37339;SDS011;23223;51.006;7.610;2022-08-05T14:24:59;6.10;;;1.10;;
37339;SDS011;23223;51.006;7.610;2022-08-05T14:27:24;5.20;;;1.77;;
37339;SDS011;23223;51.006;7.610;2022-08-05T14:29:50;3.03;;;1.55;;
37339;SDS011;23223;51.006;7.610;2022-08-05T14:32:15;4.13;;;1.75;;
37339;SDS011;23223;51.006;7.610;2022-08-05T14:34:44;4.00;;;1.95;;
37339;SDS011;23223;51.006;7.610;2022-08-05T14:37:09;4.07;;;1.88;;
37339;SDS011;23223;51.006;7.610;2022-08-05T14:39:35;3.20;;;1.35;;
37339;SDS011;23223;51.006;7.610;2022-08-05T14:42:00;3.75;;;1.80;;
37339;SDS011;23223;51.006;7.610;2022-08-05T14:44:26;7.43;;;1.95;;
37339;SDS011;23223;51.006;7.610;2022-08-05T14:46:52;3.17;;;1.50;;
37339;SDS011;23223;51.006;7.610;2022-08-05T14:49:18;2.83;;;1.50;;
37339;SDS011;23223;51.006;7.610;2022-08-05T14:51:43;3.20;;;1.40;;
37339;SDS011;23223;51.006;7.610;2022-08-05T14:54:09;6.13;;;1.98;;
37339;SDS011;23223;51.006;7.610;2022-08-05T14:56:35;4.20;;;1.67;;
37339;SDS011;23223;51.006;7.610;2022-08-05T14:59:01;5.60;;;1.95;;
37339;SDS011;23223;51.006;7.610;2022-08-05T15:01:26;5.15;;;2.00;;
37339;SDS011;23223;51.006;7.610;2022-08-05T15:03:52;5.72;;;2.03;;
37339;SDS011;23223;51.006;7.610;2022-08-05T15:06:18;3.97;;;1.90;;
37339;SDS011;23223;51.006;7.610;2022-08-05T15:08:44;1.70;;;1.45;;
37339;SDS011;23223;51.006;7.610;2022-08-05T15:11:10;3.92;;;1.60;;
37339;SDS011;23223;51.006;7.610;2022-08-05T15:13:35;6.40;;;1.98;;
37339;SDS011;23223;51.006;7.610;2022-08-05T15:16:01;6.72;;;2.17;;